sensor_id;sensor_type;location;lat;lon;timestamp;P1;durP1;ratioP1;P2;durP2;ratioP2
47335;SDS011;33068;51.990;5.926;2023-12-04T00:00:11;81.57;;;33.70;;
47335;SDS011;33068;51.990;5.926;2023-12-04T00:02:39;81.47;;;33.92;;
47335;SDS011;33068;51.990;5.926;2023-12-04T00:05:07;80.10;;;32.53;;
47335;SDS011;33068;51.990;5.926;2023-12-04T00:07:36;77.68;;;34.63;;
47335;SDS011;33068;51.990;5.926;2023-12-04T00:10:04;81.85;;;32.65;;
47335;SDS011;33068;51.990;5.926;2023-12-04T00:12:31;73.07;;;33.67;;
47335;SDS011;33068;51.990;5.926;2023-12-04T00:14:59;71.45;;;30.27;;
47335;SDS011;33068;51.990;5.926;2023-12-04T00:17:26;73.25;;;32.78;;
47335;SDS011;33068;51.990;5.926;2023-12-04T00:19:53;76.75;;;32.80;;
47335;SDS011;33068;51.990;5.926;2023-12-04T00:22:21;74.55;;;30.42;;
47335;SDS011;33068;51.990;5.926;2023-12-04T00:24:50;77.40;;;32.17;;
47335;SDS011;33068;51.990;5.926;2023-12-04T00:27:17;80.82;;;32.78;;
47335;SDS011;33068;51.990;5.926;2023-12-04T00:29:46;79.43;;;32.00;;
47335;SDS011;33068;51.990;5.926;2023-12-04T00:32:13;66.85;;;31.52;;
47335;SDS011;33068;51.990;5.926;2023-12-04T00:34:40;70.25;;;30.83;;
47335;SDS011;33068;51.990;5.926;2023-12-04T00:37:08;70.85;;;30.05;;
47335;SDS011;33068;51.990;5.926;2023-12-04T00:39:35;69.35;;;30.83;;
47335;SDS011;33068;51.990;5.926;2023-12-04T00:42:05;69.85;;;29.77;;
47335;SDS011;33068;51.990;5.926;2023-12-04T00:44:32;75.57;;;30.85;;
47335;SDS011;33068;51.990;5.926;2023-12-04T00:46:59;67.93;;;29.92;;
47335;SDS011;33068;51.990;5.926;2023-12-04T00:49:27;77.28;;;31.63;;
47335;SDS011;33068;51.990;5.926;2023-12-04T00:51:54;67.95;;;30.65;;
47335;SDS011;33068;51.990;5.926;2023-12-04T00:54:21;68.30;;;29.83;;
47335;SDS011;33068;51.990;5.926;2023-12-04T00:56:49;59.00;;;28.13;;
47335;SDS011;33068;51.990;5.926;2023-12-04T00:59:18;67.57;;;29.58;;
47335;SDS011;33068;51.990;5.926;2023-12-04T01:01:45;65.35;;;30.05;;
47335;SDS011;33068;51.990;5.926;2023-12-04T01:04:12;59.75;;;28.25;;
47335;SDS011;33068;51.990;5.926;2023-12-04T01:06:39;65.82;;;29.38;;
47335;SDS011;33068;51.990;5.926;2023-12-04T01:09:07;66.78;;;29.38;;
47335;SDS011;33068;51.990;5.926;2023-12-04T01:11:34;62.83;;;26.80;;
47335;SDS011;33068;51.990;5.926;2023-12-04T01:14:02;65.20;;;27.92;;
47335;SDS011;33068;51.990;5.926;2023-12-04T01:16:30;60.28;;;27.73;;
47335;SDS011;33068;51.990;5.926;2023-12-04T01:18:58;62.10;;;26.55;;
47335;SDS011;33068;51.990;5.926;2023-12-04T01:21:25;62.45;;;28.85;;
47335;SDS011;33068;51.990;5.926;2023-12-04T01:23:53;57.05;;;27.85;;
47335;SDS011;33068;51.990;5.926;2023-12-04T01:26:20;60.55;;;28.58;;
47335;SDS011;33068;51.990;5.926;2023-12-04T01:28:47;65.13;;;28.20;;
47335;SDS011;33068;51.990;5.926;2023-12-04T01:31:15;65.55;;;29.40;;
47335;SDS011;33068;51.990;5.926;2023-12-04T01:33:44;59.75;;;29.33;;
47335;SDS011;33068;51.990;5.926;2023-12-04T01:36:11;58.38;;;29.13;;
47335;SDS011;33068;51.990;5.926;2023-12-04T01:38:38;66.88;;;27.98;;
47335;SDS011;33068;51.990;5.926;2023-12-04T01:41:06;61.95;;;27.85;;
47335;SDS011;33068;51.990;5.926;2023-12-04T01:43:33;62.72;;;29.30;;
47335;SDS011;33068;51.990;5.926;2023-12-04T01:46:01;63.88;;;27.73;;
47335;SDS011;33068;51.990;5.926;2023-12-04T01:48:28;67.38;;;30.48;;
47335;SDS011;33068;51.990;5.926;2023-12-04T01:50:57;62.92;;;29.42;;
47335;SDS011;33068;51.990;5.926;2023-12-04T01:53:25;65.10;;;26.70;;
47335;SDS011;33068;51.990;5.926;2023-12-04T01:55:53;64.43;;;29.92;;
47335;SDS011;33068;51.990;5.926;2023-12-04T01:58:20;69.47;;;30.17;;
47335;SDS011;33068;51.990;5.926;2023-12-04T02:00:48;68.68;;;30.17;;
47335;SDS011;33068;51.990;5.926;2023-12-04T02:03:15;67.18;;;29.30;;
47335;SDS011;33068;51.990;5.926;2023-12-04T02:05:44;58.38;;;28.50;;
47335;SDS011;33068;51.990;5.926;2023-12-04T02:08:12;61.95;;;29.63;;
47335;SDS011;33068;51.990;5.926;2023-12-04T02:10:40;63.67;;;27.42;;
47335;SDS011;33068;51.990;5.926;2023-12-04T02:13:07;56.45;;;25.65;;
47335;SDS011;33068;51.990;5.926;2023-12-04T02:15:35;61.15;;;28.25;;
47335;SDS011;33068;51.990;5.926;2023-12-04T02:18:02;53.58;;;24.45;;
47335;SDS011;33068;51.990;5.926;2023-12-04T02:20:33;62.58;;;28.85;;
47335;SDS011;33068;51.990;5.926;2023-12-04T02:23:00;63.40;;;28.38;;
47335;SDS011;33068;51.990;5.926;2023-12-04T02:25:29;59.63;;;28.02;;
47335;SDS011;33068;51.990;5.926;2023-12-04T02:27:58;55.95;;;26.00;;
47335;SDS011;33068;51.990;5.926;2023-12-04T02:30:26;56.85;;;26.17;;
47335;SDS011;33068;51.990;5.926;2023-12-04T02:32:56;59.08;;;26.50;;
47335;SDS011;33068;51.990;5.926;2023-12-04T02:35:24;54.60;;;25.60;;
47335;SDS011;33068;51.990;5.926;2023-12-04T02:37:53;56.17;;;25.65;;
47335;SDS011;33068;51.990;5.926;2023-12-04T02:40:21;56.58;;;24.33;;
47335;SDS011;33068;51.990;5.926;2023-12-04T02:42:50;46.10;;;22.95;;
47335;SDS011;33068;51.990;5.926;2023-12-04T02:45:17;47.08;;;22.80;;
47335;SDS011;33068;51.990;5.926;2023-12-04T02:47:44;52.58;;;24.80;;
47335;SDS011;33068;51.990;5.926;2023-12-04T02:50:12;50.80;;;23.70;;
47335;SDS011;33068;51.990;5.926;2023-12-04T02:52:39;53.95;;;24.05;;
47335;SDS011;33068;51.990;5.926;2023-12-04T02:55:07;49.45;;;24.42;;
47335;SDS011;33068;51.990;5.926;2023-12-04T02:57:34;43.80;;;22.40;;
47335;SDS011;33068;51.990;5.926;2023-12-04T03:00:03;43.30;;;21.52;;
47335;SDS011;33068;51.990;5.926;2023-12-04T03:02:31;51.08;;;23.20;;
47335;SDS011;33068;51.990;5.926;2023-12-04T03:04:59;48.05;;;23.45;;
47335;SDS011;33068;51.990;5.926;2023-12-04T03:07:26;47.17;;;23.63;;
47335;SDS011;33068;51.990;5.926;2023-12-04T03:09:54;45.22;;;21.98;;
47335;SDS011;33068;51.990;5.926;2023-12-04T03:12:21;48.03;;;23.23;;
47335;SDS011;33068;51.990;5.926;2023-12-04T03:14:48;45.10;;;22.92;;
47335;SDS011;33068;51.990;5.926;2023-12-04T03:17:17;45.45;;;22.23;;
47335;SDS011;33068;51.990;5.926;2023-12-04T03:19:45;46.67;;;22.75;;
47335;SDS011;33068;51.990;5.926;2023-12-04T03:22:12;49.15;;;22.85;;
47335;SDS011;33068;51.990;5.926;2023-12-04T03:24:39;41.38;;;22.10;;
47335;SDS011;33068;51.990;5.926;2023-12-04T03:27:07;39.63;;;19.73;;
47335;SDS011;33068;51.990;5.926;2023-12-04T03:29:34;42.75;;;19.90;;
47335;SDS011;33068;51.990;5.926;2023-12-04T03:32:01;44.35;;;21.02;;
47335;SDS011;33068;51.990;5.926;2023-12-04T03:34:30;43.88;;;20.92;;
47335;SDS011;33068;51.990;5.926;2023-12-04T03:36:57;41.05;;;21.15;;
47335;SDS011;33068;51.990;5.926;2023-12-04T03:39:25;41.42;;;20.85;;
47335;SDS011;33068;51.990;5.926;2023-12-04T03:41:52;38.60;;;19.20;;
47335;SDS011;33068;51.990;5.926;2023-12-04T03:44:19;43.75;;;19.77;;
47335;SDS011;33068;51.990;5.926;2023-12-04T03:46:47;36.45;;;19.20;;
47335;SDS011;33068;51.990;5.926;2023-12-04T03:49:14;37.15;;;19.23;;
47335;SDS011;33068;51.990;5.926;2023-12-04T03:51:43;39.35;;;19.58;;
47335;SDS011;33068;51.990;5.926;2023-12-04T03:54:10;36.08;;;19.25;;
47335;SDS011;33068;51.990;5.926;2023-12-04T03:56:39;41.17;;;19.85;;
47335;SDS011;33068;51.990;5.926;2023-12-04T03:59:08;37.70;;;19.60;;
47335;SDS011;33068;51.990;5.926;2023-12-04T04:01:36;37.45;;;19.10;;
47335;SDS011;33068;51.990;5.926;2023-12-04T04:04:03;40.55;;;19.80;;
47335;SDS011;33068;51.990;5.926;2023-12-04T04:06:31;36.08;;;17.70;;
47335;SDS011;33068;51.990;5.926;2023-12-04T04:09:00;38.05;;;20.30;;
47335;SDS011;33068;51.990;5.926;2023-12-04T04:11:27;39.10;;;19.38;;
47335;SDS011;33068;51.990;5.926;2023-12-04T04:13:54;34.97;;;18.27;;
47335;SDS011;33068;51.990;5.926;2023-12-04T04:16:22;38.28;;;19.27;;
47335;SDS011;33068;51.990;5.926;2023-12-04T04:18:49;33.63;;;17.63;;
47335;SDS011;33068;51.990;5.926;2023-12-04T04:21:17;34.47;;;18.70;;
47335;SDS011;33068;51.990;5.926;2023-12-04T04:23:44;32.53;;;17.35;;
47335;SDS011;33068;51.990;5.926;2023-12-04T04:26:13;35.40;;;17.77;;
47335;SDS011;33068;51.990;5.926;2023-12-04T04:28:40;41.65;;;19.27;;
47335;SDS011;33068;51.990;5.926;2023-12-04T04:31:08;37.00;;;18.92;;
47335;SDS011;33068;51.990;5.926;2023-12-04T04:33:35;32.70;;;17.90;;
47335;SDS011;33068;51.990;5.926;2023-12-04T04:36:03;38.28;;;17.83;;
47335;SDS011;33068;51.990;5.926;2023-12-04T04:38:30;35.85;;;17.08;;
47335;SDS011;33068;51.990;5.926;2023-12-04T04:40:58;34.25;;;17.80;;
47335;SDS011;33068;51.990;5.926;2023-12-04T04:43:26;29.35;;;16.10;;
47335;SDS011;33068;51.990;5.926;2023-12-04T04:45:54;33.88;;;17.20;;
47335;SDS011;33068;51.990;5.926;2023-12-04T04:48:21;33.72;;;17.23;;
47335;SDS011;33068;51.990;5.926;2023-12-04T04:50:48;32.17;;;16.45;;
47335;SDS011;33068;51.990;5.926;2023-12-04T04:53:16;28.92;;;16.10;;
47335;SDS011;33068;51.990;5.926;2023-12-04T04:55:43;32.42;;;17.85;;
47335;SDS011;33068;51.990;5.926;2023-12-04T04:58:11;35.08;;;17.17;;
47335;SDS011;33068;51.990;5.926;2023-12-04T05:00:39;30.20;;;15.88;;
47335;SDS011;33068;51.990;5.926;2023-12-04T05:03:07;29.15;;;15.13;;
47335;SDS011;33068;51.990;5.926;2023-12-04T05:05:34;25.45;;;13.70;;
47335;SDS011;33068;51.990;5.926;2023-12-04T05:08:01;28.00;;;15.55;;
47335;SDS011;33068;51.990;5.926;2023-12-04T05:10:29;28.58;;;15.38;;
47335;SDS011;33068;51.990;5.926;2023-12-04T05:12:56;27.80;;;13.95;;
47335;SDS011;33068;51.990;5.926;2023-12-04T05:15:24;28.35;;;15.93;;
47335;SDS011;33068;51.990;5.926;2023-12-04T05:17:53;25.02;;;13.57;;
47335;SDS011;33068;51.990;5.926;2023-12-04T05:20:20;26.33;;;15.13;;
47335;SDS011;33068;51.990;5.926;2023-12-04T05:22:48;27.92;;;13.90;;
47335;SDS011;33068;51.990;5.926;2023-12-04T05:25:17;27.60;;;15.10;;
47335;SDS011;33068;51.990;5.926;2023-12-04T05:27:45;26.33;;;14.15;;
47335;SDS011;33068;51.990;5.926;2023-12-04T05:30:12;29.05;;;15.23;;
47335;SDS011;33068;51.990;5.926;2023-12-04T05:32:40;27.50;;;15.02;;
47335;SDS011;33068;51.990;5.926;2023-12-04T05:35:09;25.05;;;14.43;;
47335;SDS011;33068;51.990;5.926;2023-12-04T05:37:36;25.40;;;13.90;;
47335;SDS011;33068;51.990;5.926;2023-12-04T05:40:44;26.90;;;14.05;;
47335;SDS011;33068;51.990;5.926;2023-12-04T05:43:12;22.58;;;12.88;;
47335;SDS011;33068;51.990;5.926;2023-12-04T05:45:39;24.50;;;14.63;;
47335;SDS011;33068;51.990;5.926;2023-12-04T05:48:07;24.63;;;13.25;;
47335;SDS011;33068;51.990;5.926;2023-12-04T05:50:36;23.27;;;13.43;;
47335;SDS011;33068;51.990;5.926;2023-12-04T05:53:03;24.80;;;13.63;;
47335;SDS011;33068;51.990;5.926;2023-12-04T05:55:30;26.70;;;12.68;;
47335;SDS011;33068;51.990;5.926;2023-12-04T05:57:58;22.05;;;12.93;;
47335;SDS011;33068;51.990;5.926;2023-12-04T06:00:25;19.75;;;12.20;;
47335;SDS011;33068;51.990;5.926;2023-12-04T06:02:52;21.00;;;11.82;;
47335;SDS011;33068;51.990;5.926;2023-12-04T06:05:20;23.83;;;12.02;;
47335;SDS011;33068;51.990;5.926;2023-12-04T06:07:49;21.85;;;12.35;;
47335;SDS011;33068;51.990;5.926;2023-12-04T06:10:17;20.75;;;12.68;;
47335;SDS011;33068;51.990;5.926;2023-12-04T06:12:44;23.27;;;12.25;;
47335;SDS011;33068;51.990;5.926;2023-12-04T06:15:12;20.13;;;11.52;;
47335;SDS011;33068;51.990;5.926;2023-12-04T06:17:39;23.38;;;12.63;;
47335;SDS011;33068;51.990;5.926;2023-12-04T06:20:07;20.65;;;11.98;;
47335;SDS011;33068;51.990;5.926;2023-12-04T06:22:36;24.92;;;12.07;;
47335;SDS011;33068;51.990;5.926;2023-12-04T06:25:06;20.70;;;12.27;;
47335;SDS011;33068;51.990;5.926;2023-12-04T06:27:34;19.73;;;11.10;;
47335;SDS011;33068;51.990;5.926;2023-12-04T06:30:04;20.40;;;10.73;;
47335;SDS011;33068;51.990;5.926;2023-12-04T06:32:32;18.85;;;10.95;;
47335;SDS011;33068;51.990;5.926;2023-12-04T06:35:00;22.33;;;12.43;;
47335;SDS011;33068;51.990;5.926;2023-12-04T06:37:28;17.58;;;10.63;;
47335;SDS011;33068;51.990;5.926;2023-12-04T06:39:56;22.13;;;12.27;;
47335;SDS011;33068;51.990;5.926;2023-12-04T06:42:26;20.25;;;11.20;;
47335;SDS011;33068;51.990;5.926;2023-12-04T06:44:54;22.05;;;11.43;;
47335;SDS011;33068;51.990;5.926;2023-12-04T06:47:22;22.52;;;12.75;;
47335;SDS011;33068;51.990;5.926;2023-12-04T06:49:49;21.25;;;11.40;;
47335;SDS011;33068;51.990;5.926;2023-12-04T06:52:17;17.00;;;10.40;;
47335;SDS011;33068;51.990;5.926;2023-12-04T06:54:44;20.98;;;10.85;;
47335;SDS011;33068;51.990;5.926;2023-12-04T06:57:11;17.05;;;10.30;;
47335;SDS011;33068;51.990;5.926;2023-12-04T06:59:41;18.70;;;10.35;;
47335;SDS011;33068;51.990;5.926;2023-12-04T07:02:08;17.27;;;9.60;;
47335;SDS011;33068;51.990;5.926;2023-12-04T07:04:36;20.83;;;11.43;;
47335;SDS011;33068;51.990;5.926;2023-12-04T07:07:05;16.80;;;10.18;;
47335;SDS011;33068;51.990;5.926;2023-12-04T07:09:32;18.38;;;10.52;;
47335;SDS011;33068;51.990;5.926;2023-12-04T07:12:00;17.90;;;10.15;;
47335;SDS011;33068;51.990;5.926;2023-12-04T07:14:27;16.90;;;10.30;;
47335;SDS011;33068;51.990;5.926;2023-12-04T07:16:56;19.08;;;10.45;;
47335;SDS011;33068;51.990;5.926;2023-12-04T07:19:23;16.58;;;8.80;;
47335;SDS011;33068;51.990;5.926;2023-12-04T07:21:52;15.15;;;9.30;;
47335;SDS011;33068;51.990;5.926;2023-12-04T07:24:19;18.80;;;10.40;;
47335;SDS011;33068;51.990;5.926;2023-12-04T07:26:47;15.15;;;8.93;;
47335;SDS011;33068;51.990;5.926;2023-12-04T07:29:14;16.08;;;10.10;;
47335;SDS011;33068;51.990;5.926;2023-12-04T07:31:41;17.75;;;10.13;;
47335;SDS011;33068;51.990;5.926;2023-12-04T07:34:10;16.45;;;9.15;;
47335;SDS011;33068;51.990;5.926;2023-12-04T07:36:38;18.50;;;9.93;;
47335;SDS011;33068;51.990;5.926;2023-12-04T07:39:05;16.75;;;10.20;;
47335;SDS011;33068;51.990;5.926;2023-12-04T07:41:36;16.80;;;9.68;;
47335;SDS011;33068;51.990;5.926;2023-12-04T07:44:03;17.92;;;9.55;;
47335;SDS011;33068;51.990;5.926;2023-12-04T07:46:31;16.75;;;9.45;;
47335;SDS011;33068;51.990;5.926;2023-12-04T07:48:58;15.88;;;9.52;;
47335;SDS011;33068;51.990;5.926;2023-12-04T07:51:27;16.75;;;9.60;;
47335;SDS011;33068;51.990;5.926;2023-12-04T07:53:54;16.67;;;9.20;;
47335;SDS011;33068;51.990;5.926;2023-12-04T07:56:21;14.52;;;8.35;;
47335;SDS011;33068;51.990;5.926;2023-12-04T07:58:49;16.98;;;9.43;;
47335;SDS011;33068;51.990;5.926;2023-12-04T08:01:16;15.43;;;9.20;;
47335;SDS011;33068;51.990;5.926;2023-12-04T08:03:44;15.30;;;9.07;;
47335;SDS011;33068;51.990;5.926;2023-12-04T08:06:11;15.18;;;8.60;;
47335;SDS011;33068;51.990;5.926;2023-12-04T08:08:40;17.70;;;9.88;;
47335;SDS011;33068;51.990;5.926;2023-12-04T08:11:09;16.00;;;8.88;;
47335;SDS011;33068;51.990;5.926;2023-12-04T08:13:37;13.43;;;8.90;;
47335;SDS011;33068;51.990;5.926;2023-12-04T08:16:05;15.10;;;8.88;;
47335;SDS011;33068;51.990;5.926;2023-12-04T08:18:40;16.73;;;10.67;;
47335;SDS011;33068;51.990;5.926;2023-12-04T08:21:08;15.80;;;8.73;;
47335;SDS011;33068;51.990;5.926;2023-12-04T08:23:34;17.48;;;9.00;;
47335;SDS011;33068;51.990;5.926;2023-12-04T08:26:06;17.00;;;8.93;;
47335;SDS011;33068;51.990;5.926;2023-12-04T08:28:33;16.63;;;9.70;;
47335;SDS011;33068;51.990;5.926;2023-12-04T08:31:03;14.57;;;8.85;;
47335;SDS011;33068;51.990;5.926;2023-12-04T08:33:32;15.82;;;9.48;;
47335;SDS011;33068;51.990;5.926;2023-12-04T08:36:00;15.68;;;9.40;;
47335;SDS011;33068;51.990;5.926;2023-12-04T08:38:27;14.73;;;9.05;;
47335;SDS011;33068;51.990;5.926;2023-12-04T08:40:54;15.35;;;8.35;;
47335;SDS011;33068;51.990;5.926;2023-12-04T08:43:24;15.82;;;8.65;;
47335;SDS011;33068;51.990;5.926;2023-12-04T08:45:51;17.00;;;8.75;;
47335;SDS011;33068;51.990;5.926;2023-12-04T08:48:18;12.95;;;8.43;;
47335;SDS011;33068;51.990;5.926;2023-12-04T08:50:46;14.63;;;8.27;;
47335;SDS011;33068;51.990;5.926;2023-12-04T08:53:14;16.52;;;9.90;;
47335;SDS011;33068;51.990;5.926;2023-12-04T08:55:41;15.23;;;8.95;;
47335;SDS011;33068;51.990;5.926;2023-12-04T08:58:09;16.25;;;10.25;;
47335;SDS011;33068;51.990;5.926;2023-12-04T09:00:38;15.65;;;9.30;;
47335;SDS011;33068;51.990;5.926;2023-12-04T09:03:08;18.40;;;10.48;;
47335;SDS011;33068;51.990;5.926;2023-12-04T09:05:36;18.58;;;10.15;;
47335;SDS011;33068;51.990;5.926;2023-12-04T09:08:06;15.60;;;8.93;;
47335;SDS011;33068;51.990;5.926;2023-12-04T09:10:33;17.67;;;10.63;;
47335;SDS011;33068;51.990;5.926;2023-12-04T09:13:02;16.13;;;9.77;;
47335;SDS011;33068;51.990;5.926;2023-12-04T09:15:29;14.95;;;9.50;;
47335;SDS011;33068;51.990;5.926;2023-12-04T09:17:58;15.80;;;8.90;;
47335;SDS011;33068;51.990;5.926;2023-12-04T09:20:25;16.20;;;9.30;;
47335;SDS011;33068;51.990;5.926;2023-12-04T09:22:53;19.48;;;10.52;;
47335;SDS011;33068;51.990;5.926;2023-12-04T09:25:20;17.10;;;10.18;;
47335;SDS011;33068;51.990;5.926;2023-12-04T09:27:48;18.00;;;10.80;;
47335;SDS011;33068;51.990;5.926;2023-12-04T09:30:15;14.73;;;9.57;;
47335;SDS011;33068;51.990;5.926;2023-12-04T09:32:43;14.15;;;9.18;;
47335;SDS011;33068;51.990;5.926;2023-12-04T09:35:11;16.30;;;9.40;;
47335;SDS011;33068;51.990;5.926;2023-12-04T09:37:40;17.80;;;10.98;;
47335;SDS011;33068;51.990;5.926;2023-12-04T09:40:08;17.90;;;11.23;;
47335;SDS011;33068;51.990;5.926;2023-12-04T09:42:35;18.45;;;11.35;;
47335;SDS011;33068;51.990;5.926;2023-12-04T09:45:04;18.20;;;10.55;;
47335;SDS011;33068;51.990;5.926;2023-12-04T09:47:33;19.05;;;10.18;;
47335;SDS011;33068;51.990;5.926;2023-12-04T09:50:01;17.33;;;10.65;;
47335;SDS011;33068;51.990;5.926;2023-12-04T09:52:30;16.40;;;10.00;;
47335;SDS011;33068;51.990;5.926;2023-12-04T09:54:58;17.17;;;11.00;;
47335;SDS011;33068;51.990;5.926;2023-12-04T09:57:26;19.70;;;11.05;;
47335;SDS011;33068;51.990;5.926;2023-12-04T09:59:53;18.88;;;11.50;;
47335;SDS011;33068;51.990;5.926;2023-12-04T10:02:21;22.05;;;11.07;;
47335;SDS011;33068;51.990;5.926;2023-12-04T10:04:48;17.02;;;10.80;;
47335;SDS011;33068;51.990;5.926;2023-12-04T10:07:16;21.70;;;11.77;;
47335;SDS011;33068;51.990;5.926;2023-12-04T10:09:44;18.20;;;10.65;;
47335;SDS011;33068;51.990;5.926;2023-12-04T10:12:12;21.13;;;11.73;;
47335;SDS011;33068;51.990;5.926;2023-12-04T10:14:39;18.25;;;10.73;;
47335;SDS011;33068;51.990;5.926;2023-12-04T10:17:16;19.25;;;11.55;;
47335;SDS011;33068;51.990;5.926;2023-12-04T10:19:43;16.85;;;10.82;;
47335;SDS011;33068;51.990;5.926;2023-12-04T10:22:11;18.80;;;10.18;;
47335;SDS011;33068;51.990;5.926;2023-12-04T10:24:39;19.33;;;10.90;;
47335;SDS011;33068;51.990;5.926;2023-12-04T10:27:08;17.17;;;10.52;;
47335;SDS011;33068;51.990;5.926;2023-12-04T10:29:41;19.42;;;11.10;;
47335;SDS011;33068;51.990;5.926;2023-12-04T10:32:08;19.08;;;11.10;;
47335;SDS011;33068;51.990;5.926;2023-12-04T10:34:36;17.65;;;10.85;;
47335;SDS011;33068;51.990;5.926;2023-12-04T10:37:04;18.15;;;11.10;;
47335;SDS011;33068;51.990;5.926;2023-12-04T10:39:36;18.08;;;10.10;;
47335;SDS011;33068;51.990;5.926;2023-12-04T10:42:15;18.50;;;9.30;;
47335;SDS011;33068;51.990;5.926;2023-12-04T10:44:49;17.05;;;10.32;;
47335;SDS011;33068;51.990;5.926;2023-12-04T10:47:17;17.75;;;10.43;;
47335;SDS011;33068;51.990;5.926;2023-12-04T10:49:46;17.05;;;9.65;;
47335;SDS011;33068;51.990;5.926;2023-12-04T10:52:15;17.80;;;10.65;;
47335;SDS011;33068;51.990;5.926;2023-12-04T10:54:44;15.93;;;10.20;;
47335;SDS011;33068;51.990;5.926;2023-12-04T10:57:12;17.33;;;9.85;;
47335;SDS011;33068;51.990;5.926;2023-12-04T10:59:41;13.48;;;9.45;;
47335;SDS011;33068;51.990;5.926;2023-12-04T11:02:11;15.70;;;9.90;;
47335;SDS011;33068;51.990;5.926;2023-12-04T11:04:41;18.38;;;9.38;;
47335;SDS011;33068;51.990;5.926;2023-12-04T11:07:09;15.15;;;9.80;;
47335;SDS011;33068;51.990;5.926;2023-12-04T11:09:39;16.08;;;9.07;;
47335;SDS011;33068;51.990;5.926;2023-12-04T11:12:08;16.15;;;8.93;;
47335;SDS011;33068;51.990;5.926;2023-12-04T11:14:39;14.40;;;9.25;;
47335;SDS011;33068;51.990;5.926;2023-12-04T11:17:10;15.10;;;9.75;;
47335;SDS011;33068;51.990;5.926;2023-12-04T11:19:40;15.75;;;8.65;;
47335;SDS011;33068;51.990;5.926;2023-12-04T11:22:11;13.38;;;8.13;;
47335;SDS011;33068;51.990;5.926;2023-12-04T11:24:39;15.60;;;9.13;;
47335;SDS011;33068;51.990;5.926;2023-12-04T11:27:06;15.75;;;9.60;;
47335;SDS011;33068;51.990;5.926;2023-12-04T11:29:34;17.65;;;9.73;;
47335;SDS011;33068;51.990;5.926;2023-12-04T11:32:04;15.77;;;8.55;;
47335;SDS011;33068;51.990;5.926;2023-12-04T11:34:34;17.02;;;8.60;;
47335;SDS011;33068;51.990;5.926;2023-12-04T11:37:02;15.52;;;9.07;;
47335;SDS011;33068;51.990;5.926;2023-12-04T11:39:30;17.85;;;8.57;;
47335;SDS011;33068;51.990;5.926;2023-12-04T11:42:00;16.20;;;8.65;;
47335;SDS011;33068;51.990;5.926;2023-12-04T11:44:28;14.43;;;8.65;;
47335;SDS011;33068;51.990;5.926;2023-12-04T11:46:56;12.90;;;8.45;;
47335;SDS011;33068;51.990;5.926;2023-12-04T11:49:27;17.58;;;9.20;;
47335;SDS011;33068;51.990;5.926;2023-12-04T11:51:56;13.15;;;8.10;;
47335;SDS011;33068;51.990;5.926;2023-12-04T11:54:25;14.68;;;8.60;;
47335;SDS011;33068;51.990;5.926;2023-12-04T11:56:57;15.95;;;9.02;;
47335;SDS011;33068;51.990;5.926;2023-12-04T11:59:25;13.48;;;8.80;;
47335;SDS011;33068;51.990;5.926;2023-12-04T12:01:53;15.73;;;9.27;;
47335;SDS011;33068;51.990;5.926;2023-12-04T12:04:21;14.60;;;8.43;;
47335;SDS011;33068;51.990;5.926;2023-12-04T12:06:49;15.68;;;8.68;;
47335;SDS011;33068;51.990;5.926;2023-12-04T12:09:18;14.63;;;8.73;;
47335;SDS011;33068;51.990;5.926;2023-12-04T12:11:46;14.88;;;8.98;;
47335;SDS011;33068;51.990;5.926;2023-12-04T12:14:13;16.98;;;8.75;;
47335;SDS011;33068;51.990;5.926;2023-12-04T12:16:40;13.65;;;7.90;;
47335;SDS011;33068;51.990;5.926;2023-12-04T12:19:08;14.38;;;7.57;;
47335;SDS011;33068;51.990;5.926;2023-12-04T12:21:35;14.57;;;8.07;;
47335;SDS011;33068;51.990;5.926;2023-12-04T12:24:05;15.82;;;8.63;;
47335;SDS011;33068;51.990;5.926;2023-12-04T12:26:34;15.32;;;9.07;;
47335;SDS011;33068;51.990;5.926;2023-12-04T12:29:02;12.85;;;8.80;;
47335;SDS011;33068;51.990;5.926;2023-12-04T12:31:29;13.02;;;8.82;;
47335;SDS011;33068;51.990;5.926;2023-12-04T12:33:56;16.15;;;8.82;;
47335;SDS011;33068;51.990;5.926;2023-12-04T12:36:24;13.00;;;7.97;;
47335;SDS011;33068;51.990;5.926;2023-12-04T12:38:52;18.15;;;8.30;;
47335;SDS011;33068;51.990;5.926;2023-12-04T12:41:21;11.18;;;7.50;;
47335;SDS011;33068;51.990;5.926;2023-12-04T12:43:52;17.23;;;8.85;;
47335;SDS011;33068;51.990;5.926;2023-12-04T12:46:20;17.05;;;8.48;;
47335;SDS011;33068;51.990;5.926;2023-12-04T12:48:48;15.05;;;8.32;;
47335;SDS011;33068;51.990;5.926;2023-12-04T12:51:16;18.25;;;8.70;;
47335;SDS011;33068;51.990;5.926;2023-12-04T12:53:44;13.93;;;8.40;;
47335;SDS011;33068;51.990;5.926;2023-12-04T12:56:11;16.00;;;8.38;;
47335;SDS011;33068;51.990;5.926;2023-12-04T12:58:39;13.43;;;7.93;;
47335;SDS011;33068;51.990;5.926;2023-12-04T13:01:10;15.20;;;8.73;;
47335;SDS011;33068;51.990;5.926;2023-12-04T13:03:39;16.23;;;8.73;;
47335;SDS011;33068;51.990;5.926;2023-12-04T13:06:06;14.18;;;8.43;;
47335;SDS011;33068;51.990;5.926;2023-12-04T13:08:34;13.02;;;8.77;;
47335;SDS011;33068;51.990;5.926;2023-12-04T13:11:02;15.60;;;8.82;;
47335;SDS011;33068;51.990;5.926;2023-12-04T13:13:31;14.45;;;8.50;;
47335;SDS011;33068;51.990;5.926;2023-12-04T13:15:58;16.85;;;8.73;;
47335;SDS011;33068;51.990;5.926;2023-12-04T13:18:27;15.68;;;9.40;;
47335;SDS011;33068;51.990;5.926;2023-12-04T13:20:57;12.95;;;8.30;;
47335;SDS011;33068;51.990;5.926;2023-12-04T13:23:24;15.98;;;9.45;;
47335;SDS011;33068;51.990;5.926;2023-12-04T13:25:51;16.95;;;8.95;;
47335;SDS011;33068;51.990;5.926;2023-12-04T13:28:19;17.65;;;9.00;;
47335;SDS011;33068;51.990;5.926;2023-12-04T13:30:47;16.63;;;8.98;;
47335;SDS011;33068;51.990;5.926;2023-12-04T13:33:14;15.57;;;9.75;;
47335;SDS011;33068;51.990;5.926;2023-12-04T13:35:43;11.52;;;7.38;;
47335;SDS011;33068;51.990;5.926;2023-12-04T13:38:11;15.75;;;9.45;;
47335;SDS011;33068;51.990;5.926;2023-12-04T13:40:39;16.40;;;9.60;;
47335;SDS011;33068;51.990;5.926;2023-12-04T13:43:06;16.25;;;8.93;;
47335;SDS011;33068;51.990;5.926;2023-12-04T13:45:57;17.02;;;8.88;;
47335;SDS011;33068;51.990;5.926;2023-12-04T13:48:24;16.77;;;9.38;;
47335;SDS011;33068;51.990;5.926;2023-12-04T13:50:53;18.17;;;9.32;;
47335;SDS011;33068;51.990;5.926;2023-12-04T13:53:20;17.33;;;9.25;;
47335;SDS011;33068;51.990;5.926;2023-12-04T13:55:54;13.10;;;8.60;;
47335;SDS011;33068;51.990;5.926;2023-12-04T13:58:38;18.42;;;10.05;;
47335;SDS011;33068;51.990;5.926;2023-12-04T14:01:10;16.23;;;9.65;;
47335;SDS011;33068;51.990;5.926;2023-12-04T14:03:47;13.55;;;8.07;;
47335;SDS011;33068;51.990;5.926;2023-12-04T14:06:16;15.93;;;9.25;;
47335;SDS011;33068;51.990;5.926;2023-12-04T14:08:43;15.55;;;10.32;;
47335;SDS011;33068;51.990;5.926;2023-12-04T14:11:11;17.50;;;9.35;;
47335;SDS011;33068;51.990;5.926;2023-12-04T14:13:39;17.50;;;8.52;;
47335;SDS011;33068;51.990;5.926;2023-12-04T14:16:07;17.85;;;9.70;;
47335;SDS011;33068;51.990;5.926;2023-12-04T14:18:35;17.73;;;10.32;;
47335;SDS011;33068;51.990;5.926;2023-12-04T14:21:02;16.65;;;9.98;;
47335;SDS011;33068;51.990;5.926;2023-12-04T14:23:31;21.42;;;10.60;;
47335;SDS011;33068;51.990;5.926;2023-12-04T14:25:59;19.10;;;10.65;;
47335;SDS011;33068;51.990;5.926;2023-12-04T14:28:27;18.50;;;11.00;;
47335;SDS011;33068;51.990;5.926;2023-12-04T14:30:54;15.15;;;9.35;;